createdAt,value
2018-07-05T00:00:00.333Z,99547.09
2018-07-05T00:02:47.431Z,99548.91
2018-07-05T00:05:34.282Z,99555.20
2018-07-05T00:08:21.269Z,99559.64
2018-07-05T00:11:07.993Z,99564.61
2018-07-05T00:13:54.855Z,99576.13
2018-07-05T00:16:41.505Z,99569.09
2018-07-05T00:19:28.621Z,99569.34
2018-07-05T00:22:15.335Z,99567.23
2018-07-05T00:25:02.450Z,99561.76
2018-07-05T00:27:49.339Z,99560.45
2018-07-05T00:30:36.413Z,99556.52
2018-07-05T00:33:23.266Z,99553.88
2018-07-05T00:36:10.566Z,99547.85
2018-07-05T00:38:57.212Z,99541.55
2018-07-05T00:41:44.033Z,99546.03
2018-07-05T00:44:31.041Z,99543.73
2018-07-05T00:47:18.140Z,99543.17
2018-07-05T00:50:05.081Z,99550.22
2018-07-05T00:52:45.968Z,99545.03
2018-07-05T00:55:26.616Z,99548.16
2018-07-05T00:58:13.498Z,99553.91
2018-07-05T01:01:00.408Z,99548.41
2018-07-05T01:03:47.357Z,99548.41
2018-07-05T01:06:34.132Z,99558.33
2018-07-05T01:09:20.945Z,99572.73
2018-07-05T01:12:07.569Z,99572.46
2018-07-05T01:14:54.540Z,99573.77
2018-07-05T01:17:41.149Z,99571.67
2018-07-05T01:20:28.326Z,99570.38
2018-07-05T01:23:08.988Z,99574.30
2018-07-05T01:25:56.109Z,99569.34
2018-07-05T01:28:37.356Z,99565.69
2018-07-05T01:31:24.122Z,99568.81
2018-07-05T01:34:10.945Z,99573.26
2018-07-05T01:36:58.349Z,99570.12
2018-07-05T01:39:39.101Z,99564.38
2018-07-05T01:42:26.057Z,99568.81
2018-07-05T01:45:12.701Z,99570.90
2018-07-05T01:47:59.802Z,99561.48
2018-07-05T01:50:46.506Z,99568.47
2018-07-05T01:53:33.573Z,99568.19
2018-07-05T01:56:20.120Z,99570.28
2018-07-05T01:59:07.009Z,99569.47
2018-07-05T02:01:53.637Z,99564.00
2018-07-05T02:04:40.737Z,99563.98
2018-07-05T02:07:27.469Z,99573.13
2018-07-05T02:10:14.357Z,99574.45
2018-07-05T02:13:01.117Z,99577.36
2018-07-05T02:15:48.214Z,99571.34
2018-07-05T02:18:35.065Z,99562.98
2018-07-05T02:21:15.773Z,99562.44
2018-07-05T02:24:02.551Z,99560.13
2018-07-05T02:26:49.150Z,99563.02
2018-07-05T02:29:35.945Z,99563.80
2018-07-05T02:32:23.140Z,99562.73
2018-07-05T02:35:09.762Z,99568.78
2018-07-05T02:38:01.863Z,99566.14
2018-07-05T02:40:48.684Z,99565.06
2018-07-05T02:43:35.534Z,99574.47
2018-07-05T02:46:22.415Z,99580.72
2018-07-05T02:49:09.533Z,99581.47
2018-07-05T02:51:56.361Z,99581.47
2018-07-05T02:54:43.143Z,99583.52
2018-07-05T02:57:30.181Z,99582.25
2018-07-05T03:00:17.009Z,99577.33
2018-07-05T03:03:03.584Z,99581.18
2018-07-05T03:05:50.937Z,99577.28
2018-07-05T03:08:37.819Z,99578.86
2018-07-05T03:11:24.601Z,99587.27
2018-07-05T03:14:11.471Z,99584.63
2018-07-05T03:16:59.577Z,99589.55
2018-07-05T03:19:46.487Z,99589.83
2018-07-05T03:22:33.790Z,99592.45
2018-07-05T03:25:20.723Z,99596.36
2018-07-05T03:28:07.669Z,99592.99
2018-07-05T03:30:54.678Z,99595.86
2018-07-05T03:33:42.075Z,99597.99
2018-07-05T03:36:28.805Z,99604.78
2018-07-05T03:39:15.753Z,99598.25
2018-07-05T03:42:02.506Z,99600.69
2018-07-05T03:44:49.457Z,99592.03
2018-07-05T03:47:36.434Z,99586.29
2018-07-05T03:50:23.381Z,99588.92
2018-07-05T03:53:10.281Z,99589.71
2018-07-05T03:55:57.253Z,99590.75
2018-07-05T03:58:43.901Z,99588.63
2018-07-05T04:01:30.931Z,99593.61
2018-07-05T04:04:17.810Z,99586.81
2018-07-05T04:07:05.165Z,99587.60
2018-07-05T04:09:52.065Z,99589.98
2018-07-05T04:12:38.893Z,99595.73
2018-07-05T04:15:19.830Z,99590.75
2018-07-05T04:18:06.872Z,99596.27
2018-07-05T04:20:53.677Z,99598.36
2018-07-05T04:23:40.707Z,99596.28
2018-07-05T04:26:27.398Z,99593.66
2018-07-05T04:29:14.425Z,99603.07
2018-07-05T04:32:01.125Z,99599.42
2018-07-05T04:34:48.018Z,99600.97
2018-07-05T04:37:35.136Z,99604.65
2018-07-05T04:40:22.351Z,99607.50
2018-07-05T04:43:09.289Z,99610.16
2018-07-05T04:45:55.945Z,99602.03
2018-07-05T04:48:42.805Z,99609.88
2018-07-05T04:51:29.673Z,99615.39
2018-07-05T04:54:16.810Z,99606.69
2018-07-05T04:57:04.542Z,99607.30
2018-07-05T04:59:51.659Z,99603.13
2018-07-05T05:02:38.341Z,99603.03
2018-07-05T05:05:25.208Z,99607.39
2018-07-05T05:08:12.298Z,99605.73
2018-07-05T05:10:59.042Z,99603.88
2018-07-05T05:13:39.874Z,99611.53
2018-07-05T05:16:26.802Z,99603.45
2018-07-05T05:19:07.944Z,99605.42
2018-07-05T05:21:54.852Z,99608.55
2018-07-05T05:24:41.733Z,99609.19
2018-07-05T05:27:28.494Z,99608.95
2018-07-05T05:30:15.383Z,99612.00
2018-07-05T05:33:02.125Z,99615.84
2018-07-05T05:35:49.213Z,99607.91
2018-07-05T05:38:36.086Z,99615.64
2018-07-05T05:41:23.545Z,99612.81
2018-07-05T05:44:10.184Z,99612.16
2018-07-05T05:46:58.517Z,99607.73
2018-07-05T05:49:45.627Z,99614.55
2018-07-05T05:52:32.310Z,99608.84
2018-07-05T05:55:19.141Z,99611.25
2018-07-05T05:58:06.210Z,99605.81
2018-07-05T06:00:53.056Z,99605.84
2018-07-05T06:03:40.071Z,99601.94
2018-07-05T06:06:21.104Z,99601.62
2018-07-05T06:09:08.147Z,99597.44
2018-07-05T06:11:48.909Z,99591.97
2018-07-05T06:14:29.625Z,99601.02
2018-07-05T06:17:16.380Z,99588.67
2018-07-05T06:20:04.630Z,99593.00
2018-07-05T06:22:45.570Z,99589.91
2018-07-05T06:25:32.418Z,99594.31
2018-07-05T06:28:20.234Z,99590.69
2018-07-05T06:31:07.524Z,99595.27
2018-07-05T06:33:54.341Z,99589.19
2018-07-05T06:36:41.132Z,99593.66
2018-07-05T06:39:28.146Z,99595.95
2018-07-05T06:42:15.282Z,99591.73
2018-07-05T06:45:02.041Z,99595.00
2018-07-05T06:47:43.073Z,99592.88
2018-07-05T06:50:29.706Z,99586.76
2018-07-05T06:53:16.895Z,99592.41
2018-07-05T06:56:03.830Z,99593.49
2018-07-05T06:58:50.822Z,99585.52
2018-07-05T07:01:37.810Z,99585.61
2018-07-05T07:04:24.848Z,99584.16
2018-07-05T07:07:11.603Z,99586.58
2018-07-05T07:09:59.001Z,99580.83
2018-07-05T07:12:45.715Z,99575.76
2018-07-05T07:15:33.833Z,99575.45
2018-07-05T07:18:20.951Z,99571.69
2018-07-05T07:21:08.076Z,99562.02
2018-07-05T07:23:55.078Z,99564.38
2018-07-05T07:26:42.350Z,99558.42
2018-07-05T07:29:23.454Z,99560.84
2018-07-05T07:32:11.194Z,99558.19
2018-07-05T07:34:58.140Z,99559.53
2018-07-05T07:37:39.601Z,99563.55
2018-07-05T07:40:26.609Z,99565.03
2018-07-05T07:42:55.198Z,99553.63
2018-07-05T07:45:23.410Z,99551.31
2018-07-05T07:47:51.669Z,99550.42
2018-07-05T07:50:20.612Z,99545.73
2018-07-05T07:52:49.090Z,99540.77
2018-07-05T07:55:17.314Z,99538.36
2018-07-05T07:57:46.594Z,99540.17
2018-07-05T08:00:14.839Z,99535.23
2018-07-05T08:02:43.073Z,99533.72
2018-07-05T08:05:11.663Z,99532.73
2018-07-05T08:07:39.913Z,99533.95
2018-07-05T08:10:08.690Z,99535.63
2018-07-05T08:12:37.017Z,99530.80
2018-07-05T08:15:05.255Z,99532.62
2018-07-05T08:17:33.817Z,99529.73
2018-07-05T08:20:02.364Z,99534.60
2018-07-05T08:22:30.607Z,99524.13
2018-07-05T08:24:58.881Z,99529.48
2018-07-05T08:27:27.538Z,99526.99
2018-07-05T08:29:55.845Z,99522.33
2018-07-05T08:32:24.118Z,99519.42
2018-07-05T08:34:52.605Z,99514.92
2018-07-05T08:37:20.874Z,99514.73
2018-07-05T08:39:49.531Z,99510.47
2018-07-05T08:42:17.793Z,99511.52
2018-07-05T08:44:46.022Z,99506.84
2018-07-05T08:47:14.277Z,99514.04
2018-07-05T08:49:42.996Z,99505.47
2018-07-05T08:52:11.241Z,99505.61
2018-07-05T08:54:40.008Z,99507.93
2018-07-05T08:57:08.521Z,99505.05
2018-07-05T08:59:37.003Z,99506.16
2018-07-05T09:02:05.268Z,99507.79
2018-07-05T09:04:33.889Z,99501.23
2018-07-05T09:07:02.211Z,99502.70
2018-07-05T09:09:30.850Z,99493.53
2018-07-05T09:11:59.309Z,99484.27
2018-07-05T09:14:27.566Z,99491.55
2018-07-05T09:16:56.126Z,99483.14
2018-07-05T09:19:24.544Z,99479.65
2018-07-05T09:21:52.760Z,99477.20
2018-07-05T09:24:21.366Z,99478.58
2018-07-05T09:26:49.744Z,99470.02
2018-07-05T09:29:18.366Z,99468.41
2018-07-05T09:31:46.545Z,99467.23
2018-07-05T09:34:14.766Z,99467.33
2018-07-05T09:36:43.013Z,99455.69
2018-07-05T09:39:11.745Z,99454.41
2018-07-05T09:41:40.297Z,99452.16
2018-07-05T09:44:08.634Z,99452.88
2018-07-05T09:46:36.838Z,99447.33
2018-07-05T09:49:05.109Z,99453.38
2018-07-05T09:51:33.387Z,99451.27
2018-07-05T09:54:01.698Z,99444.92
2018-07-05T09:56:30.119Z,99447.67
2018-07-05T09:58:58.385Z,99443.34
2018-07-05T10:01:26.557Z,99435.79
2018-07-05T10:03:55.225Z,99431.81
2018-07-05T10:06:24.005Z,99428.98
2018-07-05T10:08:52.206Z,99424.34
2018-07-05T10:11:21.676Z,99430.52
2018-07-05T10:13:50.538Z,99427.20
2018-07-05T10:16:18.425Z,99424.61
2018-07-05T10:18:46.984Z,99420.77
2018-07-05T10:21:15.181Z,99424.46
2018-07-05T10:23:43.465Z,99417.19
2018-07-05T10:26:12.173Z,99422.36
2018-07-05T10:29:00.186Z,99417.05
2018-07-05T10:31:41.548Z,99410.05
2018-07-05T10:34:09.715Z,99406.52
2018-07-05T10:36:37.916Z,99401.95
2018-07-05T10:39:06.686Z,99399.30
2018-07-05T10:41:53.629Z,99398.64
2018-07-05T10:44:40.793Z,99388.70
2018-07-05T10:47:27.546Z,99390.63
2018-07-05T10:50:15.562Z,99380.98
2018-07-05T10:53:02.290Z,99383.98
2018-07-05T10:55:43.041Z,99377.77
2018-07-05T10:58:29.955Z,99382.11
2018-07-05T11:01:17.172Z,99372.17
2018-07-05T11:04:04.078Z,99361.52
2018-07-05T11:06:51.069Z,99371.57
2018-07-05T11:09:37.926Z,99367.17
2018-07-05T11:12:18.860Z,99368.67
2018-07-05T11:15:05.619Z,99350.77
2018-07-05T11:17:53.742Z,99357.52
2018-07-05T11:20:34.607Z,99357.11
2018-07-05T11:23:22.022Z,99352.88
2018-07-05T11:26:08.864Z,99348.28
2018-07-05T11:28:56.097Z,99339.41
2018-07-05T11:31:42.838Z,99328.00
2018-07-05T11:34:29.813Z,99335.34
2018-07-05T11:37:16.514Z,99334.26
2018-07-05T11:39:57.894Z,99326.20
2018-07-05T11:42:44.769Z,99326.05
2018-07-05T11:45:31.934Z,99326.97
2018-07-05T11:48:18.875Z,99325.09
2018-07-05T11:51:05.593Z,99321.44
2018-07-05T11:53:52.145Z,99310.23
2018-07-05T11:56:33.200Z,99309.30
2018-07-05T11:59:20.217Z,99310.81
2018-07-05T12:02:07.349Z,99299.31
2018-07-05T12:04:53.878Z,99309.80
2018-07-05T12:07:40.542Z,99302.25
2018-07-05T12:10:27.072Z,99296.80
2018-07-05T12:13:13.961Z,99299.65
2018-07-05T12:16:00.669Z,99289.63
2018-07-05T12:18:47.694Z,99303.00
2018-07-05T12:21:34.417Z,99298.72
2018-07-05T12:24:21.413Z,99298.73
2018-07-05T12:27:08.317Z,99303.39
2018-07-05T12:29:49.184Z,99296.31
2018-07-05T12:32:36.172Z,99294.44
2018-07-05T12:35:23.086Z,99290.56
2018-07-05T12:38:09.862Z,99286.98
2018-07-05T12:40:56.912Z,99292.83
2018-07-05T12:43:43.641Z,99287.67
2018-07-05T12:46:24.695Z,99286.48
2018-07-05T12:49:11.521Z,99287.51
2018-07-05T12:51:58.602Z,99278.71
2018-07-05T12:54:45.227Z,99282.45
2018-07-05T12:57:32.464Z,99284.61
2018-07-05T13:00:13.249Z,99281.02
2018-07-05T13:02:54.089Z,99281.30
2018-07-05T13:05:41.213Z,99284.14
2018-07-05T13:08:22.117Z,99282.05
2018-07-05T13:11:02.946Z,99276.50
2018-07-05T13:13:50.101Z,99271.14
2018-07-05T13:16:37.182Z,99276.07
2018-07-05T13:19:23.966Z,99268.27
2018-07-05T13:22:11.033Z,99265.98
2018-07-05T13:24:52.029Z,99269.56
2018-07-05T13:27:38.753Z,99265.20
2018-07-05T13:30:25.837Z,99265.85
2018-07-05T13:33:12.566Z,99265.70
2018-07-05T13:35:59.509Z,99266.06
2018-07-05T13:38:46.069Z,99272.53
2018-07-05T13:41:33.288Z,99276.17
2018-07-05T13:44:20.053Z,99277.98
2018-07-05T13:47:06.894Z,99272.20
2018-07-05T13:49:53.783Z,99268.91
2018-07-05T13:52:34.861Z,99275.00
2018-07-05T13:55:21.530Z,99281.41
2018-07-05T13:58:08.619Z,99280.62
2018-07-05T14:00:55.531Z,99272.89
2018-07-05T14:03:42.433Z,99277.69
2018-07-05T14:06:29.447Z,99282.56
2018-07-05T14:09:16.300Z,99280.09
2018-07-05T14:12:03.090Z,99279.94
2018-07-05T14:14:44.088Z,99278.27
2018-07-05T14:17:30.817Z,99278.33
2018-07-05T14:20:11.808Z,99288.66
2018-07-05T14:22:58.783Z,99286.09
2018-07-05T14:25:39.911Z,99290.75
2018-07-05T14:28:26.801Z,99286.19
2018-07-05T14:31:13.865Z,99286.68
2018-07-05T14:34:00.517Z,99285.67
2018-07-05T14:36:41.340Z,99294.80
2018-07-05T14:39:28.214Z,99291.61
2018-07-05T14:42:15.189Z,99291.71
2018-07-05T14:45:02.126Z,99289.77
2018-07-05T14:47:48.885Z,99286.13
2018-07-05T14:50:35.809Z,99297.30
2018-07-05T14:53:22.970Z,99295.47
2018-07-05T14:56:09.673Z,99291.81
2018-07-05T14:58:57.167Z,99299.36
2018-07-05T15:01:43.907Z,99303.31
2018-07-05T15:04:30.829Z,99292.20
2018-07-05T15:07:17.626Z,99296.03
2018-07-05T15:10:04.486Z,99296.20
2018-07-05T15:12:51.149Z,99296.02
2018-07-05T15:15:38.417Z,99294.21
2018-07-05T15:18:25.102Z,99292.48
2018-07-05T15:21:11.998Z,99294.13
2018-07-05T15:23:58.974Z,99294.42
2018-07-05T15:26:45.992Z,99292.94
2018-07-05T15:29:32.685Z,99296.98
2018-07-05T15:32:19.614Z,99293.81
2018-07-05T15:35:06.345Z,99301.85
2018-07-05T15:37:47.177Z,99297.09
2018-07-05T15:40:33.914Z,99300.72
2018-07-05T15:43:20.770Z,99305.13
2018-07-05T15:46:07.518Z,99302.60
2018-07-05T15:48:54.640Z,99302.63
2018-07-05T15:51:41.503Z,99302.89
2018-07-05T15:54:28.225Z,99309.36
2018-07-05T15:57:14.957Z,99305.50
2018-07-05T16:00:02.126Z,99309.73
2018-07-05T16:02:48.817Z,99308.80
2018-07-05T16:05:35.659Z,99309.20
2018-07-05T16:08:22.326Z,99310.88
2018-07-05T16:11:03.443Z,99305.95
2018-07-05T16:13:50.188Z,99312.02
2018-07-05T16:16:36.977Z,99312.12
2018-07-05T16:19:23.880Z,99306.59
2018-07-05T16:22:10.966Z,99307.75
2018-07-05T16:24:58.045Z,99310.02
2018-07-05T16:27:44.993Z,99308.52
2018-07-05T16:30:31.594Z,99306.82
2018-07-05T16:33:12.747Z,99310.16
2018-07-05T16:35:59.650Z,99310.16
2018-07-05T16:38:47.023Z,99309.02
2018-07-05T16:41:33.813Z,99314.67
2018-07-05T16:44:14.970Z,99312.01
2018-07-05T16:47:01.805Z,99319.25
2018-07-05T16:49:48.929Z,99317.18
2018-07-05T16:52:35.585Z,99324.33
2018-07-05T16:55:22.450Z,99325.64
2018-07-05T16:58:09.245Z,99324.92
2018-07-05T17:00:55.968Z,99322.87
2018-07-05T17:03:42.932Z,99331.73
2018-07-05T17:06:30.133Z,99332.23
2018-07-05T17:09:16.934Z,99330.31
2018-07-05T17:12:03.687Z,99332.91
2018-07-05T17:14:44.271Z,99335.66
2018-07-05T17:17:31.233Z,99339.34
2018-07-05T17:20:17.932Z,99336.91
2018-07-05T17:23:04.782Z,99338.05
2018-07-05T17:25:45.444Z,99337.40
2018-07-05T17:28:32.457Z,99342.08
2018-07-05T17:31:19.049Z,99335.23
2018-07-05T17:34:06.077Z,99338.28
2018-07-05T17:36:52.922Z,99340.59
2018-07-05T17:39:40.058Z,99336.13
2018-07-05T17:42:26.952Z,99343.33
2018-07-05T17:45:14.002Z,99342.74
2018-07-05T17:47:54.660Z,99339.81
2018-07-05T17:50:41.317Z,99348.64
2018-07-05T17:53:28.287Z,99344.08
2018-07-05T17:56:15.214Z,99346.25
2018-07-05T17:59:01.798Z,99346.63
2018-07-05T18:01:49.298Z,99348.35
2018-07-05T18:04:36.145Z,99352.30
2018-07-05T18:07:16.932Z,99351.84
2018-07-05T18:09:57.945Z,99357.77
2018-07-05T18:12:45.000Z,99358.49
2018-07-05T18:15:31.872Z,99355.90
2018-07-05T18:18:19.206Z,99353.84
2018-07-05T18:21:05.937Z,99362.16
2018-07-05T18:23:52.861Z,99360.95
2018-07-05T18:26:39.765Z,99360.79
2018-07-05T18:29:26.746Z,99368.58
2018-07-05T18:32:13.660Z,99371.85
2018-07-05T18:35:00.814Z,99375.25
2018-07-05T18:37:47.578Z,99375.73
2018-07-05T18:40:34.673Z,99379.91
2018-07-05T18:43:21.362Z,99382.95
2018-07-05T18:46:02.234Z,99384.58
2018-07-05T18:48:49.197Z,99391.59
2018-07-05T18:51:36.240Z,99392.91
2018-07-05T18:54:22.806Z,99392.65
2018-07-05T18:57:09.865Z,99395.48
2018-07-05T18:59:56.743Z,99397.30
2018-07-05T19:02:43.489Z,99400.84
2018-07-05T19:05:30.138Z,99406.56
2018-07-05T19:08:17.149Z,99405.98
2018-07-05T19:11:03.703Z,99408.68
2018-07-05T19:13:50.726Z,99406.05
2018-07-05T19:16:37.563Z,99413.33
2018-07-05T19:19:24.346Z,99413.88
2018-07-05T19:22:11.353Z,99414.36
2018-07-05T19:24:58.177Z,99416.28
2018-07-05T19:27:45.155Z,99420.57
2018-07-05T19:30:32.042Z,99419.14
2018-07-05T19:33:18.718Z,99420.22
2018-07-05T19:36:05.707Z,99420.63
2018-07-05T19:38:52.493Z,99417.53
2018-07-05T19:41:39.385Z,99421.52
2018-07-05T19:44:26.324Z,99425.69
2018-07-05T19:47:13.106Z,99426.52
2018-07-05T19:49:59.766Z,99427.79
2018-07-05T19:52:47.027Z,99432.48
2018-07-05T19:55:33.872Z,99434.79
2018-07-05T19:58:20.962Z,99434.36
2018-07-05T20:01:07.856Z,99442.07
2018-07-05T20:03:54.541Z,99446.77
2018-07-05T20:06:35.312Z,99446.60
2018-07-05T20:09:22.294Z,99448.30
2018-07-05T20:12:06.397Z,99451.53
2018-07-05T20:14:53.348Z,99447.84
2018-07-05T20:17:40.060Z,99450.77
2018-07-05T20:20:26.937Z,99444.02
2018-07-05T20:23:13.697Z,99448.32
2018-07-05T20:26:01.141Z,99452.03
2018-07-05T20:28:42.077Z,99455.09
2018-07-05T20:31:29.148Z,99452.17
2018-07-05T20:34:16.104Z,99452.30
2018-07-05T20:37:03.055Z,99453.92
2018-07-05T20:39:49.753Z,99453.05
2018-07-05T20:42:36.673Z,99448.55
2018-07-05T20:45:23.378Z,99455.17
2018-07-05T20:48:10.245Z,99463.64
2018-07-05T20:50:56.885Z,99465.65
2018-07-05T20:53:43.913Z,99457.86
2018-07-05T20:56:30.412Z,99459.70
2018-07-05T20:59:17.169Z,99461.68
2018-07-05T21:02:03.969Z,99461.97
2018-07-05T21:04:51.016Z,99453.16
2018-07-05T21:07:37.957Z,99460.98
2018-07-05T21:10:25.585Z,99451.19
2018-07-05T21:13:12.428Z,99456.20
2018-07-05T21:15:59.317Z,99463.00
2018-07-05T21:18:46.017Z,99455.12
2018-07-05T21:21:32.897Z,99458.84
2018-07-05T21:24:19.608Z,99453.45
2018-07-05T21:27:06.509Z,99461.63
2018-07-05T21:29:53.233Z,99462.00
2018-07-05T21:32:40.285Z,99457.20
2018-07-05T21:35:20.948Z,99461.76
2018-07-05T21:38:08.314Z,99470.97
2018-07-05T21:40:54.940Z,99470.27
2018-07-05T21:43:41.861Z,99468.81
2018-07-05T21:46:28.484Z,99474.93
2018-07-05T21:49:15.354Z,99480.70
2018-07-05T21:52:02.101Z,99481.14
2018-07-05T21:54:48.898Z,99480.88
2018-07-05T21:57:35.612Z,99483.12
2018-07-05T22:00:22.863Z,99478.30
2018-07-05T22:03:03.628Z,99476.76
2018-07-05T22:05:50.706Z,99476.84
2018-07-05T22:08:37.550Z,99480.77
2018-07-05T22:11:24.574Z,99480.53
2018-07-05T22:14:05.238Z,99477.41
2018-07-05T22:16:51.233Z,99483.45
2018-07-05T22:21:50.461Z,99476.70
2018-07-05T22:24:42.688Z,99480.66
2018-07-05T22:27:34.493Z,99485.38
2018-07-05T22:30:26.799Z,99482.25
2018-07-05T22:33:13.453Z,99483.31
2018-07-05T22:36:00.734Z,99478.88
2018-07-05T22:38:47.680Z,99477.54
2018-07-05T22:41:36.713Z,99472.59
2018-07-05T22:44:23.445Z,99473.90
2018-07-05T22:47:10.313Z,99483.05
2018-07-05T22:49:57.065Z,99473.89
2018-07-05T22:52:43.862Z,99474.91
2018-07-05T22:55:30.686Z,99474.66
2018-07-05T22:58:17.770Z,99468.95
2018-07-05T23:01:04.518Z,99465.53
2018-07-05T23:03:51.602Z,99465.78
2018-07-05T23:06:38.451Z,99467.12
2018-07-05T23:09:25.717Z,99464.22
2018-07-05T23:12:12.369Z,99467.59
2018-07-05T23:14:59.765Z,99475.13
2018-07-05T23:17:46.818Z,99477.98
2018-07-05T23:20:27.684Z,99479.08
2018-07-05T23:23:14.490Z,99479.38
2018-07-05T23:26:01.477Z,99479.60
2018-07-05T23:28:48.334Z,99473.82
2018-07-05T23:31:35.236Z,99475.92
2018-07-05T23:34:22.219Z,99479.04
2018-07-05T23:37:09.269Z,99472.01
2018-07-05T23:39:56.061Z,99478.86
2018-07-05T23:42:42.952Z,99475.75
2018-07-05T23:45:29.682Z,99474.30
2018-07-05T23:48:17.135Z,99474.01
2018-07-05T23:50:57.685Z,99478.67
2018-07-05T23:53:44.872Z,99472.41
2018-07-05T23:56:31.705Z,99475.27
2018-07-05T23:59:18.362Z,99479.41
